createdAt,value
2023-10-05T00:02:12.696Z,5.07
2023-10-05T00:04:43.746Z,5.20
2023-10-05T00:07:21.066Z,4.20
2023-10-05T00:09:48.563Z,5.68
2023-10-05T00:12:24.920Z,4.70
2023-10-05T00:15:05.037Z,5.13
2023-10-05T00:17:33.864Z,4.22
2023-10-05T00:20:00.971Z,5.70
2023-10-05T00:22:27.856Z,5.65
2023-10-05T00:24:54.709Z,3.80
2023-10-05T00:27:21.694Z,7.18
2023-10-05T00:29:55.327Z,5.75
2023-10-05T00:32:40.686Z,7.78
2023-10-05T00:35:33.265Z,6.30
2023-10-05T00:38:13.748Z,5.32
2023-10-05T00:40:45.540Z,4.40
2023-10-05T00:43:18.386Z,3.60
2023-10-05T00:45:48.775Z,4.15
2023-10-05T00:48:42.793Z,4.90
2023-10-05T00:51:15.554Z,5.05
2023-10-05T00:53:43.300Z,6.53
2023-10-05T00:56:13.642Z,5.30
2023-10-05T00:58:46.173Z,4.90
2023-10-05T01:01:16.616Z,4.65
2023-10-05T01:04:09.099Z,5.60
2023-10-05T01:06:39.340Z,5.75
2023-10-05T01:09:29.734Z,5.80
2023-10-05T01:12:16.724Z,5.07
2023-10-05T01:14:52.382Z,7.38
2023-10-05T01:17:27.587Z,3.95
2023-10-05T01:20:00.080Z,8.15
2023-10-05T01:22:40.051Z,5.15
2023-10-05T01:25:09.208Z,4.47
2023-10-05T01:27:41.709Z,4.65
2023-10-05T01:30:11.553Z,6.85
2023-10-05T01:32:38.880Z,5.28
2023-10-05T01:35:12.294Z,5.43
2023-10-05T01:37:48.278Z,4.72
2023-10-05T01:40:19.360Z,6.57
2023-10-05T01:42:48.972Z,3.08
2023-10-05T01:45:21.702Z,4.72
2023-10-05T01:47:48.616Z,3.80
2023-10-05T01:50:20.717Z,3.35
2023-10-05T01:52:56.705Z,4.60
2023-10-05T01:55:25.748Z,5.13
2023-10-05T01:57:55.101Z,4.15
2023-10-05T02:00:24.685Z,4.65
2023-10-05T02:02:53.647Z,4.93
2023-10-05T02:05:21.469Z,4.03
2023-10-05T02:07:51.896Z,7.85
2023-10-05T02:10:22.060Z,4.95
2023-10-05T02:12:50.487Z,4.72
2023-10-05T02:15:17.745Z,5.47
2023-10-05T02:17:48.641Z,4.63
2023-10-05T02:20:34.231Z,5.05
2023-10-05T02:23:03.390Z,5.60
2023-10-05T02:25:35.429Z,3.35
2023-10-05T02:28:04.054Z,4.13
2023-10-05T02:30:32.987Z,4.22
2023-10-05T02:33:00.824Z,7.95
2023-10-05T02:35:34.470Z,5.40
2023-10-05T02:38:08.348Z,5.65
2023-10-05T02:40:47.014Z,5.68
2023-10-05T02:43:16.695Z,3.13
2023-10-05T02:45:45.582Z,4.72
2023-10-05T02:48:12.823Z,4.85
2023-10-05T02:50:40.054Z,7.50
2023-10-05T02:53:07.937Z,3.15
2023-10-05T02:55:37.670Z,7.25
2023-10-05T02:58:08.209Z,4.75
2023-10-05T03:00:35.153Z,5.72
2023-10-05T03:03:06.276Z,3.03
2023-10-05T03:05:36.280Z,3.47
2023-10-05T03:08:04.937Z,3.92
2023-10-05T03:10:32.001Z,6.15
2023-10-05T03:13:00.070Z,4.35
2023-10-05T03:15:29.090Z,4.38
2023-10-05T03:17:58.331Z,5.93
2023-10-05T03:20:26.049Z,3.92
2023-10-05T03:22:56.821Z,5.88
2023-10-05T03:25:24.785Z,5.32
2023-10-05T03:27:51.770Z,4.95
2023-10-05T03:30:24.916Z,9.85
2023-10-05T03:32:52.027Z,3.65
2023-10-05T03:35:25.918Z,3.80
2023-10-05T03:37:53.999Z,5.22
2023-10-05T03:40:24.033Z,4.78
2023-10-05T03:43:00.061Z,4.07
2023-10-05T03:45:33.722Z,4.68
2023-10-05T03:48:00.711Z,3.17
2023-10-05T03:50:30.283Z,4.80
2023-10-05T03:52:57.373Z,5.75
2023-10-05T03:55:26.161Z,8.85
2023-10-05T03:57:55.386Z,3.38
2023-10-05T04:00:22.380Z,4.85
2023-10-05T04:02:49.564Z,3.95
2023-10-05T04:05:21.236Z,8.35
2023-10-05T04:07:56.365Z,3.95
2023-10-05T04:10:39.182Z,4.60
2023-10-05T04:13:06.387Z,5.50
2023-10-05T04:15:33.396Z,7.80
2023-10-05T04:18:00.428Z,7.78
2023-10-05T04:20:30.137Z,4.88
2023-10-05T04:22:57.567Z,5.43
2023-10-05T04:25:24.882Z,3.17
2023-10-05T04:27:53.986Z,5.45
2023-10-05T04:30:22.761Z,4.25
2023-10-05T04:32:50.238Z,6.38
2023-10-05T04:35:22.954Z,7.95
2023-10-05T04:37:51.208Z,6.07
2023-10-05T04:40:21.259Z,3.17
2023-10-05T04:42:48.176Z,4.60
2023-10-05T04:45:15.745Z,2.92
2023-10-05T04:47:43.202Z,5.47
2023-10-05T04:50:16.462Z,2.95
2023-10-05T04:52:46.561Z,5.47
2023-10-05T04:55:19.700Z,4.32
2023-10-05T04:57:56.800Z,8.35
2023-10-05T05:00:43.208Z,5.47
2023-10-05T05:03:39.175Z,5.93
2023-10-05T05:06:15.421Z,4.13
2023-10-05T05:08:42.488Z,5.75
2023-10-05T05:11:20.720Z,5.35
2023-10-05T05:13:49.399Z,3.38
2023-10-05T05:16:16.596Z,9.73
2023-10-05T05:18:44.493Z,3.92
2023-10-05T05:21:12.510Z,3.58
2023-10-05T05:23:41.120Z,5.80
2023-10-05T05:26:12.086Z,5.68
2023-10-05T05:28:39.379Z,3.38
2023-10-05T05:31:15.416Z,5.35
2023-10-05T05:33:45.196Z,4.20
2023-10-05T05:36:14.396Z,4.18
2023-10-05T05:38:41.943Z,5.47
2023-10-05T05:41:17.310Z,5.82
2023-10-05T05:43:44.814Z,4.40
2023-10-05T05:46:15.054Z,5.47
2023-10-05T05:48:49.806Z,5.20
2023-10-05T05:51:18.544Z,4.13
2023-10-05T05:53:48.821Z,7.72
2023-10-05T05:56:19.749Z,5.57
2023-10-05T05:58:51.835Z,6.25
2023-10-05T06:01:20.583Z,9.10
2023-10-05T06:03:50.998Z,5.15
2023-10-05T06:06:20.403Z,7.38
2023-10-05T06:08:48.152Z,4.68
2023-10-05T06:11:15.799Z,7.28
2023-10-05T06:13:46.631Z,7.03
2023-10-05T06:16:15.451Z,5.70
2023-10-05T06:18:44.414Z,5.95
2023-10-05T06:21:12.414Z,7.18
2023-10-05T06:23:39.607Z,6.13
2023-10-05T06:26:07.697Z,5.90
2023-10-05T06:28:41.216Z,5.97
2023-10-05T06:31:12.489Z,10.80
2023-10-05T06:33:43.275Z,6.07
2023-10-05T06:36:10.245Z,5.78
2023-10-05T06:38:46.129Z,7.53
2023-10-05T06:41:30.873Z,8.27
2023-10-05T06:44:06.725Z,7.03
2023-10-05T06:46:38.727Z,5.45
2023-10-05T06:49:32.080Z,5.65
2023-10-05T06:52:02.964Z,5.57
2023-10-05T06:54:35.873Z,6.93
2023-10-05T06:57:12.984Z,9.77
2023-10-05T06:59:56.818Z,7.13
2023-10-05T07:02:36.628Z,7.75
2023-10-05T07:05:38.064Z,7.18
2023-10-05T07:08:19.109Z,9.70
2023-10-05T07:11:17.059Z,12.13
2023-10-05T07:13:46.666Z,9.93
2023-10-05T07:16:21.110Z,8.45
2023-10-05T07:18:51.438Z,11.30
2023-10-05T07:21:30.782Z,8.95
2023-10-05T07:24:05.571Z,10.50
2023-10-05T07:26:33.251Z,10.65
2023-10-05T07:29:15.879Z,7.60
2023-10-05T07:31:36.574Z,13.32
2023-10-05T07:34:12.232Z,6.00
2023-10-05T07:36:42.046Z,14.95
2023-10-05T07:39:12.855Z,12.75
2023-10-05T07:41:39.872Z,9.77
2023-10-05T07:44:10.673Z,7.22
2023-10-05T07:49:21.631Z,8.43
2023-10-05T07:55:41.079Z,8.05
2023-10-05T07:58:18.692Z,10.93
2023-10-05T08:01:19.114Z,9.48
2023-10-05T08:10:42.795Z,9.00
2023-10-05T08:13:10.240Z,7.30
2023-10-05T08:16:25.895Z,4.15
2023-10-05T08:19:24.542Z,6.13
2023-10-05T08:31:51.329Z,5.75
2023-10-05T08:34:41.117Z,10.38
2023-10-05T08:41:00.176Z,10.02
2023-10-05T08:44:16.605Z,9.65
2023-10-05T08:47:00.756Z,11.82
2023-10-05T08:53:09.761Z,11.25
2023-10-05T08:55:51.457Z,9.52
2023-10-05T09:02:48.064Z,13.07
2023-10-05T09:05:08.098Z,11.32
2023-10-05T09:08:31.048Z,13.35
2023-10-05T09:11:48.574Z,12.23
2023-10-05T09:26:39.843Z,15.10
2023-10-05T09:30:14.947Z,13.13
2023-10-05T09:32:57.124Z,16.65
2023-10-05T09:38:44.168Z,11.68
2023-10-05T09:41:40.688Z,16.53
2023-10-05T09:45:09.057Z,14.18
2023-10-05T09:47:43.827Z,11.93
2023-10-05T09:50:28.819Z,13.40
2023-10-05T09:53:24.599Z,11.40
2023-10-05T09:59:32.783Z,10.43
2023-10-05T10:02:52.699Z,10.07
2023-10-05T10:06:11.570Z,12.98
2023-10-05T10:09:12.482Z,12.18
2023-10-05T10:12:12.733Z,12.57
2023-10-05T10:15:39.559Z,14.02
2023-10-05T10:18:38.640Z,12.38
2023-10-05T10:21:55.864Z,12.60
2023-10-05T10:24:47.067Z,17.83
2023-10-05T10:29:20.375Z,9.95
2023-10-05T10:35:17.382Z,13.77
2023-10-05T10:38:10.505Z,15.57
2023-10-05T10:44:22.738Z,11.15
2023-10-05T10:48:25.425Z,10.45
2023-10-05T10:51:06.846Z,10.60
2023-10-05T10:53:51.581Z,8.23
2023-10-05T10:56:51.252Z,14.02
2023-10-05T11:06:21.661Z,9.27
2023-10-05T11:09:43.320Z,11.68
2023-10-05T11:12:24.320Z,12.27
2023-10-05T11:18:26.616Z,12.23
2023-10-05T11:21:36.103Z,11.73
2023-10-05T11:24:09.822Z,12.40
2023-10-05T11:27:21.416Z,7.88
2023-10-05T11:30:17.379Z,13.35
2023-10-05T11:33:19.976Z,9.73
2023-10-05T11:35:59.332Z,9.25
2023-10-05T11:38:48.048Z,11.85
2023-10-05T11:41:27.674Z,7.90
2023-10-05T11:47:16.026Z,10.45
2023-10-05T11:49:52.016Z,9.20
2023-10-05T11:55:30.811Z,9.52
2023-10-05T12:00:39.805Z,9.75
2023-10-05T12:03:17.551Z,15.63
2023-10-05T12:09:38.493Z,10.98
2023-10-05T12:12:23.850Z,12.75
2023-10-05T12:18:26.700Z,10.70
2023-10-05T12:21:07.706Z,13.07
2023-10-05T12:23:45.031Z,28.67
2023-10-05T12:26:47.243Z,8.52
2023-10-05T12:29:21.063Z,8.88
2023-10-05T12:32:28.343Z,9.95
2023-10-05T12:35:25.772Z,8.20
2023-10-05T12:37:53.264Z,9.13
2023-10-05T12:40:40.737Z,9.07
2023-10-05T12:43:52.849Z,10.45
2023-10-05T12:52:45.383Z,11.30
2023-10-05T12:58:19.259Z,12.82
2023-10-05T13:01:20.912Z,8.23
2023-10-05T13:04:02.912Z,10.35
2023-10-05T13:10:10.803Z,14.23
2023-10-05T13:12:46.507Z,7.13
2023-10-05T13:18:32.826Z,9.32
2023-10-05T13:24:08.202Z,9.43
2023-10-05T13:26:54.360Z,8.68
2023-10-05T13:29:26.479Z,8.57
2023-10-05T13:31:57.870Z,7.78
2023-10-05T13:34:52.845Z,12.75
2023-10-05T13:37:21.175Z,8.95
2023-10-05T13:46:37.171Z,11.90
2023-10-05T13:52:04.551Z,9.50
2023-10-05T13:54:42.036Z,9.95
2023-10-05T13:57:51.696Z,8.52
2023-10-05T14:06:43.194Z,6.65
2023-10-05T14:09:31.409Z,11.63
2023-10-05T14:12:09.125Z,9.20
2023-10-05T14:14:48.332Z,8.82
2023-10-05T14:17:27.768Z,11.00
2023-10-05T14:20:12.845Z,9.70
2023-10-05T14:22:52.661Z,6.35
2023-10-05T14:25:36.264Z,10.65
2023-10-05T14:28:19.290Z,9.80
2023-10-05T14:38:27.150Z,11.95
2023-10-05T14:52:50.696Z,6.72
2023-10-05T14:55:53.685Z,9.90
2023-10-05T14:58:27.207Z,8.65
2023-10-05T15:01:11.930Z,11.77
2023-10-05T15:04:11.613Z,14.40
2023-10-05T15:06:52.116Z,7.57
2023-10-05T15:09:22.251Z,9.40
2023-10-05T15:15:53.933Z,11.35
2023-10-05T15:18:39.765Z,7.55
2023-10-05T15:21:43.037Z,11.35
2023-10-05T15:24:36.125Z,9.80
2023-10-05T15:27:42.490Z,7.78
2023-10-05T15:34:06.022Z,10.13
2023-10-05T15:37:41.456Z,10.63
2023-10-05T15:43:24.343Z,8.90
2023-10-05T15:57:55.843Z,6.68
2023-10-05T15:59:49.438Z,8.32
2023-10-05T16:03:37.838Z,8.98
2023-10-05T16:06:55.061Z,9.65
2023-10-05T16:09:37.723Z,14.75
2023-10-05T16:12:38.152Z,14.88
2023-10-05T16:15:58.186Z,10.60
2023-10-05T16:22:03.383Z,11.10
2023-10-05T16:27:51.682Z,13.82
2023-10-05T16:30:31.717Z,10.63
2023-10-05T16:33:27.508Z,14.43
2023-10-05T16:39:33.805Z,9.90
2023-10-05T16:42:28.345Z,7.78
2023-10-05T16:45:08.175Z,14.43
2023-10-05T16:50:34.928Z,11.95
2023-10-05T16:53:16.753Z,13.23
2023-10-05T16:55:49.883Z,10.13
2023-10-05T16:58:20.023Z,12.68
2023-10-05T17:00:51.947Z,9.25
2023-10-05T17:03:31.218Z,10.20
2023-10-05T17:06:09.298Z,11.95
2023-10-05T17:08:43.989Z,12.65
2023-10-05T17:11:30.321Z,14.88
2023-10-05T17:14:31.603Z,11.75
2023-10-05T17:20:13.780Z,12.48
2023-10-05T17:22:54.484Z,10.38
2023-10-05T17:31:36.106Z,11.10
2023-10-05T17:34:05.847Z,13.70
2023-10-05T17:36:41.747Z,15.20
2023-10-05T17:39:09.127Z,17.00
2023-10-05T17:42:05.488Z,13.80
2023-10-05T17:44:40.761Z,17.38
2023-10-05T17:47:10.178Z,15.65
2023-10-05T17:49:42.746Z,13.40
2023-10-05T17:52:09.789Z,11.98
2023-10-05T17:54:38.930Z,12.35
2023-10-05T17:57:11.839Z,10.20
2023-10-05T17:59:43.901Z,9.27
2023-10-05T18:02:11.146Z,12.90
2023-10-05T18:04:38.147Z,11.70
2023-10-05T18:07:08.180Z,10.52
2023-10-05T18:12:42.554Z,15.50
2023-10-05T18:15:38.304Z,11.18
2023-10-05T18:18:15.640Z,9.57
2023-10-05T18:20:45.813Z,9.23
2023-10-05T18:23:41.705Z,8.13
2023-10-05T18:26:19.334Z,13.38
2023-10-05T18:28:46.570Z,10.45
2023-10-05T18:31:21.022Z,12.95
2023-10-05T18:33:51.009Z,9.90
2023-10-05T18:36:21.890Z,14.85
2023-10-05T18:38:52.777Z,14.45
2023-10-05T18:41:24.735Z,11.68
2023-10-05T18:43:54.320Z,9.00
2023-10-05T18:46:25.023Z,12.13
2023-10-05T18:48:51.982Z,8.63
2023-10-05T18:51:26.065Z,11.82
2023-10-05T18:53:53.755Z,13.55
2023-10-05T18:56:20.839Z,11.35
2023-10-05T19:02:31.940Z,12.18
2023-10-05T19:04:59.033Z,11.55
2023-10-05T19:07:39.147Z,11.77
2023-10-05T19:10:10.082Z,8.10
2023-10-05T19:12:41.129Z,14.02
2023-10-05T19:15:42.050Z,10.82
2023-10-05T19:18:23.168Z,11.52
2023-10-05T19:24:47.710Z,11.38
2023-10-05T19:27:43.317Z,8.38
2023-10-05T19:30:21.990Z,11.48
2023-10-05T19:32:49.008Z,10.30
2023-10-05T19:35:25.490Z,17.40
2023-10-05T19:37:55.646Z,8.00
2023-10-05T19:40:34.257Z,11.30
2023-10-05T19:43:15.411Z,10.35
2023-10-05T19:45:53.369Z,8.60
2023-10-05T19:48:30.911Z,11.90
2023-10-05T19:51:21.071Z,9.43
2023-10-05T19:54:21.567Z,12.13
2023-10-05T19:56:57.955Z,9.88
2023-10-05T20:02:43.008Z,14.30
2023-10-05T20:05:27.264Z,10.35
2023-10-05T20:08:02.965Z,10.50
2023-10-05T20:10:44.192Z,10.90
2023-10-05T20:13:25.566Z,7.30
2023-10-05T20:16:06.556Z,10.98
2023-10-05T20:21:47.156Z,9.50
2023-10-05T20:24:15.177Z,11.80
2023-10-05T20:26:51.569Z,9.05
2023-10-05T20:29:26.391Z,10.23
2023-10-05T20:32:08.173Z,9.95
2023-10-05T20:34:37.688Z,11.32
2023-10-05T20:37:32.724Z,8.43
2023-10-05T20:40:33.113Z,9.40
2023-10-05T20:43:00.761Z,7.13
2023-10-05T20:45:29.054Z,7.95
2023-10-05T20:47:55.998Z,13.35
2023-10-05T20:50:22.829Z,11.15
2023-10-05T20:52:52.807Z,8.15
2023-10-05T20:55:19.816Z,11.88
2023-10-05T20:57:46.760Z,8.43
2023-10-05T21:00:14.314Z,9.90
2023-10-05T21:02:42.356Z,8.73
2023-10-05T21:05:11.987Z,11.07
2023-10-05T21:07:38.967Z,10.45
2023-10-05T21:10:06.390Z,9.25
2023-10-05T21:12:41.651Z,11.07
2023-10-05T21:15:10.128Z,9.65
2023-10-05T21:17:39.980Z,11.88
2023-10-05T21:20:08.965Z,9.70
2023-10-05T21:22:36.176Z,9.70
2023-10-05T21:25:05.533Z,11.07
2023-10-05T21:27:32.324Z,11.43
2023-10-05T21:29:59.133Z,9.15
2023-10-05T21:32:29.292Z,12.32
2023-10-05T21:34:56.934Z,10.93
2023-10-05T21:37:24.432Z,11.00
2023-10-05T21:39:54.510Z,23.63
2023-10-05T21:42:21.287Z,18.52
2023-10-05T21:45:10.537Z,11.80
2023-10-05T21:47:37.373Z,12.50
2023-10-05T21:50:05.512Z,7.75
2023-10-05T21:52:32.381Z,9.40
2023-10-05T21:54:59.408Z,10.70
2023-10-05T21:57:26.215Z,11.90
2023-10-05T21:59:57.013Z,8.50
2023-10-05T22:02:24.685Z,8.65
2023-10-05T22:04:57.904Z,11.60
2023-10-05T22:07:26.273Z,8.32
2023-10-05T22:09:53.089Z,7.90
2023-10-05T22:12:20.052Z,11.15
2023-10-05T22:14:46.865Z,10.85
2023-10-05T22:17:13.894Z,12.48
2023-10-05T22:19:44.318Z,6.13
2023-10-05T22:22:11.733Z,9.80
2023-10-05T22:24:39.152Z,7.90
2023-10-05T22:27:08.279Z,8.52
2023-10-05T22:29:35.865Z,13.82
2023-10-05T22:32:04.949Z,10.60
2023-10-05T22:34:32.735Z,8.55
2023-10-05T22:36:59.950Z,10.00
2023-10-05T22:39:30.784Z,8.45
2023-10-05T22:41:57.768Z,11.70
2023-10-05T22:44:24.657Z,11.52
2023-10-05T22:46:53.558Z,6.63
2023-10-05T22:49:21.760Z,7.00
2023-10-05T22:51:48.938Z,7.22
2023-10-05T22:54:15.900Z,11.40
2023-10-05T22:56:45.125Z,8.55
2023-10-05T22:59:12.410Z,9.57
2023-10-05T23:01:42.887Z,11.48
2023-10-05T23:04:12.889Z,9.20
2023-10-05T23:06:39.874Z,10.23
2023-10-05T23:09:10.348Z,7.57
2023-10-05T23:11:41.468Z,10.50
2023-10-05T23:14:10.423Z,8.13
2023-10-05T23:16:37.431Z,11.45
2023-10-05T23:19:11.394Z,10.77
2023-10-05T23:21:45.208Z,9.57
2023-10-05T23:24:13.520Z,9.35
2023-10-05T23:26:41.601Z,8.70
2023-10-05T23:29:10.133Z,8.75
2023-10-05T23:31:38.815Z,11.70
2023-10-05T23:34:13.730Z,8.68
2023-10-05T23:36:41.067Z,11.27
2023-10-05T23:39:10.160Z,7.82
2023-10-05T23:41:40.637Z,9.80
2023-10-05T23:44:11.110Z,6.68
2023-10-05T23:46:41.961Z,6.93
2023-10-05T23:49:10.827Z,7.63
2023-10-05T23:51:38.143Z,9.68
2023-10-05T23:54:07.793Z,9.85
2023-10-05T23:56:34.725Z,8.15
2023-10-05T23:59:06.321Z,10.57
